• Join FlightAware (Why Join?)
  • Login
  • US Flag 
05:23AM EST


 

Airport Tracker/Info


-or-


 

Live Flight TrackerFlight Track Log ✈ COM3212 ✈ 28-Mar-2012 ✈ KDTW - KPHL

Flight Track Log - Related Links

Times and Time Zones

All times are in EDT time to prevent confusion due to time zone crossing. See the COM3212 flight status page for this flight to view local times or setup timezone preferences in your user account.

Time Position Orientation Groundspeed Altitude Reporting Facility
EDT Latitude Longitude Course Direction KTS MPH feet Rate Location/Type
08:13AM 42.2028 -83.3539 170° South 139 160 1,600  Level FAA TRACON SMA TRACON (SMA)
08:13AM 42.1694 -83.3456 166° South 210 242 2,600 1,860 Climbing FAA TRACON SMA TRACON (SMA)
08:14AM 42.1269 -83.3308 166° South 245 282 4,100 2,400 Climbing FAA TRACON SMA TRACON (SMA)
08:15AM 42.0800 -83.3147 151° Southeast 261 300 5,900 2,640 Climbing FAA TRACON SMA TRACON (SMA)
08:15AM 42.0333 -83.2794 97° East 313 360 7,700 2,880 Climbing FAA TRACON SMA TRACON (SMA)
08:16AM 42.0258 -83.1917 75° East 350 403 9,700 2,100 Climbing FAA TRACON SMA TRACON (SMA)
08:17AM 42.0439 -83.1031 69° East 387 445 10,500 1,500 Climbing FAA TRACON SMA TRACON (SMA)
08:17AM 42.0708 -83.0078 70° East 415 478 11,800 2,160 Climbing FAA TRACON SMA TRACON (SMA)
08:18AM 42.0994 -82.9036 69° East 428 493 13,400 2,400 Climbing FAA TRACON SMA TRACON (SMA)
08:19AM 42.1278 -82.8039 72° East 437 503 15,000 2,460 Climbing FAA TRACON SMA TRACON (SMA)
08:19AM 42.1536 -82.6939 105° East 445 512 16,700 2,520 Climbing FAA TRACON SMA TRACON (SMA)
08:20AM 42.1333 -82.5897 119° Southeast 444 511 18,400 2,160 Climbing FAA TRACON SMA TRACON (SMA)
08:20AM 42.1061 -82.5228 120° Southeast 426 490 19,300 1,740 Climbing Cleveland Center
08:21AM 42.0439 -82.3756 120° Southeast 431 496 21,100 1,860 Climbing Cleveland Center
08:22AM 41.9775 -82.2228 119° Southeast 462 532 23,100 2,040 Climbing Cleveland Center
08:23AM 41.9067 -82.0533 126° Southeast 473 544 25,200 1,860 Climbing Cleveland Center
08:24AM 41.8314 -81.9125 128° Southeast 478 550 26,900 1,680 Climbing Cleveland Center
08:25AM 41.7475 -81.7686 128° Southeast 478 550 28,600 1,620 Climbing Cleveland Center
08:26AM 41.6656 -81.6283 128° Southeast 485 558 30,200 1,560 Climbing Cleveland Center
08:27AM 41.5833 -81.4853 128° Southeast 485 558 31,800 1,380 Climbing Cleveland Center
08:28AM 41.4989 -81.3428 129° Southeast 485 558 33,000 600 Climbing Cleveland Center
08:29AM 41.4206 -81.2144 125° Southeast 496 571 33,000 60 Level Cleveland Center
08:30AM 41.3358 -81.0533 110° East 515 593 33,200 660 Climbing Cleveland Center
08:31AM 41.2842 -80.8678 113° Southeast 520 598 34,400 900 Climbing Cleveland Center
08:32AM 41.2261 -80.6853 114° Southeast 535 616 35,000 300 Climbing Cleveland Center
08:33AM 41.1617 -80.4922 114° Southeast 529 609 35,000  Level Cleveland Center
08:34AM 41.1008 -80.3131 118° Southeast 517 595 35,000  Level Cleveland Center
08:35AM 41.0336 -80.1456 126° Southeast 522 601 35,000  Level Cleveland Center
08:36AM 40.9494 -79.9919 125° Southeast 522 601 35,000  Level Cleveland Center
08:37AM 40.8672 -79.8392 125° Southeast 522 601 35,000  Level Cleveland Center
08:38AM 40.7850 -79.6864 126° Southeast 517 595 35,000  Level Cleveland Center
08:39AM 40.7025 -79.5369 126° Southeast 517 595 35,000  Level Cleveland Center
08:40AM 40.6194 -79.3850 127° Southeast 512 589 35,000  Level Cleveland Center
08:41AM 40.5367 -79.2417 124° Southeast 507 583 35,000  Level Cleveland Center
08:42AM 40.4578 -79.0906 127° Southeast 507 583 35,000 -360 Level Cleveland Center
08:43AM 40.3722 -78.9397 112° Southeast 502 578 34,300 -900 Descending Cleveland Center
08:44AM 40.3194 -78.7667 94° East 502 578 33,200 -1,620 Descending Cleveland Center
08:45AM 40.3103 -78.5819 90° East 502 578 31,100 -2,280 Descending Cleveland Center
08:46AM 40.3111 -78.4022 90° East 502 578 28,700 -1,860 Descending Cleveland Center
08:49AM 40.3100 -78.0200 90° East 481 554 25,000 -1,140 Descending New York Center
08:50AM 40.3103 -77.8431 91° East 481 554 25,000 -780 Level New York Center
08:51AM 40.3083 -77.6631 91° East 486 559 23,500 -1,560 Descending New York Center
08:52AM 40.3058 -77.4886 90° East 486 559 22,000 -1,560 Descending New York Center
08:53AM 40.3053 -77.3142 91° East 481 554 20,500 -1,020 Descending New York Center
08:54AM 40.3036 -77.1508 100° East 459 528 20,000 -660 Descending New York Center
08:55AM 40.2814 -76.9853 106° East 433 498 19,200 -1,200 Descending New York Center
08:56AM 40.2475 -76.8356 107° East 421 484 17,600 -1,140 Descending New York Center
08:57AM 40.2147 -76.6967 102° East 430 495 17,000 -900 Descending New York Center
08:58AM 40.1908 -76.5478 100° East 430 495 15,900 -1,320 Descending New York Center
08:59AM 40.1667 -76.3681 99° East 388 447 14,200 -1,560 Descending FAA TRACON SMA TRACON (SMA)
09:00AM 40.1561 -76.2778 101° East 369 425 13,100 -1,620 Descending FAA TRACON SMA TRACON (SMA)
09:00AM 40.1433 -76.1906 100° East 352 405 12,100 -1,560 Descending FAA TRACON SMA TRACON (SMA)
09:01AM 40.1331 -76.1142 100° East 347 399 11,100 -1,500 Descending FAA TRACON SMA TRACON (SMA)
09:02AM 40.1214 -76.0294 100° East 344 396 10,100 -1,500 Descending FAA TRACON SMA TRACON (SMA)
09:02AM 40.1103 -75.9456 101° East 339 390 9,100 -1,380 Descending FAA TRACON SMA TRACON (SMA)
09:03AM 40.1008 -75.8817 101° East 335 386 8,300 -1,500 Descending FAA TRACON SMA TRACON (SMA)
09:04AM 40.0881 -75.7919 93° East 324 373 7,100 -1,680 Descending FAA TRACON SMA TRACON (SMA)
09:04AM 40.0844 -75.7139 91° East 313 360 6,100 -780 Descending FAA TRACON SMA TRACON (SMA)
09:05AM 40.0839 -75.6453 89° East 308 354 6,100  Level FAA TRACON SMA TRACON (SMA)
09:06AM 40.0850 -75.5667 90° East 308 354 6,100  Level FAA TRACON SMA TRACON (SMA)
09:06AM 40.0850 -75.4978 90° East 308 354 6,100  Level FAA TRACON SMA TRACON (SMA)
09:07AM 40.0853 -75.4214 96° East 306 352 6,100  Level FAA TRACON SMA TRACON (SMA)
09:08AM 40.0786 -75.3444 107° East 303 349 6,100  Level FAA TRACON SMA TRACON (SMA)
09:08AM 40.0633 -75.2792 107° East 304 350 6,100  Level FAA TRACON SMA TRACON (SMA)
09:09AM 40.0475 -75.2114 108° East 255 293 6,100  Level FAA TRACON SMA TRACON (SMA)
09:10AM 40.0339 -75.1553 107° East 223 257 6,100 -300 Level FAA TRACON SMA TRACON (SMA)
09:10AM 40.0225 -75.1069 107° East 224 258 5,700 -840 Descending FAA TRACON SMA TRACON (SMA)
09:11AM 40.0097 -75.0533 128° Southeast 225 259 5,000 -1,020 Descending FAA TRACON SMA TRACON (SMA)
09:12AM 39.9864 -75.0150 152° Southeast 229 264 4,400 -900 Descending FAA TRACON SMA TRACON (SMA)
09:12AM 39.9547 -74.9933 193° South 216 249 3,800 -1,140 Descending FAA TRACON SMA TRACON (SMA)
09:13AM 39.9233 -75.0028 243° Southwest 151 174 2,900 -900 Descending FAA TRACON SMA TRACON (SMA)
09:14AM 39.9122 -75.0311 257° West 153 176 2,600 -240 Descending FAA TRACON SMA TRACON (SMA)
09:14AM 39.9061 -75.0656 257° West 140 161 2,600 -300 Level FAA TRACON SMA TRACON (SMA)
09:15AM 39.9008 -75.0964 254° West 119 137 2,200 -540 Descending FAA TRACON SMA TRACON (SMA)
09:16AM 39.8961 -75.1172 256° West 98 113 1,900 -600 Descending FAA TRACON SMA TRACON (SMA)
09:16AM 39.8911 -75.1442 255° West 111 128 1,400 -720 Descending FAA TRACON SMA TRACON (SMA)
09:17AM 39.8853 -75.1733 254° West 119 137 1,000 -660 Descending FAA TRACON SMA TRACON (SMA)
09:18AM 39.8797 -75.1981 257° West 125 144 600 -540 Descending FAA TRACON SMA TRACON (SMA)
09:18AM 39.8764 -75.2167 257° West 124 143 300 -480 Descending FAA TRACON SMA TRACON (SMA)